createdAt,value
2023-02-15T00:01:38.264Z,0.57
2023-02-15T00:06:36.674Z,0.53
2023-02-15T00:09:03.910Z,0.58
2023-02-15T00:11:51.147Z,0.52
2023-02-15T00:14:23.439Z,0.48
2023-02-15T00:19:22.850Z,0.40
2023-02-15T00:21:49.934Z,0.40
2023-02-15T00:24:18.628Z,0.36
2023-02-15T00:26:46.795Z,0.36
2023-02-15T00:31:43.164Z,0.31
2023-02-15T00:34:18.267Z,0.39
2023-02-15T00:36:47.706Z,0.43
2023-02-15T00:41:42.109Z,0.42
2023-02-15T00:44:08.972Z,0.30
2023-02-15T00:49:04.273Z,0.35
2023-02-15T00:51:34.184Z,0.28
2023-02-15T00:54:01.206Z,0.36
2023-02-15T00:56:29.516Z,0.31
2023-02-15T01:01:24.706Z,0.25
2023-02-15T01:03:53.532Z,0.33
2023-02-15T01:06:20.433Z,0.27
2023-02-15T01:08:47.499Z,0.17
2023-02-15T01:11:25.127Z,0.22
2023-02-15T01:13:56.567Z,0.23
2023-02-15T01:16:26.294Z,0.21
2023-02-15T01:21:22.846Z,0.30
2023-02-15T01:23:52.574Z,0.31
2023-02-15T01:26:19.495Z,0.35
2023-02-15T01:28:46.833Z,0.38
2023-02-15T01:31:18.445Z,0.42
2023-02-15T01:33:48.973Z,0.40
2023-02-15T01:36:16.048Z,0.42
2023-02-15T01:38:43.144Z,0.40
2023-02-15T01:41:25.296Z,0.48
2023-02-15T01:43:57.937Z,0.46
2023-02-15T01:46:32.723Z,0.50
2023-02-15T01:49:06.452Z,0.40
2023-02-15T01:51:37.863Z,0.46
2023-02-15T01:54:19.009Z,0.38
2023-02-15T01:56:46.230Z,0.34
2023-02-15T01:59:21.067Z,0.32
2023-02-15T02:01:48.437Z,0.26
2023-02-15T02:04:21.716Z,0.27
2023-02-15T02:06:51.129Z,0.30
2023-02-15T02:09:18.117Z,0.31
2023-02-15T02:11:47.941Z,0.37
2023-02-15T02:16:57.462Z,0.35
2023-02-15T02:19:55.336Z,0.39
2023-02-15T02:22:40.221Z,0.38
2023-02-15T02:25:24.792Z,0.32
2023-02-15T02:30:53.807Z,0.21
2023-02-15T02:33:41.201Z,0.18
2023-02-15T02:36:46.640Z,0.15
2023-02-15T02:39:22.276Z,0.09
2023-02-15T02:41:55.091Z,0.05
2023-02-15T02:44:44.917Z,0.15
2023-02-15T02:47:19.480Z,0.11
2023-02-15T02:49:46.152Z,0.11
2023-02-15T02:52:39.443Z,0.07
2023-02-15T02:55:11.720Z,0.13
2023-02-15T02:57:44.069Z,0.10
2023-02-15T03:00:12.363Z,0.12
2023-02-15T03:02:45.137Z,0.13
2023-02-15T03:05:17.548Z,0.07
2023-02-15T03:10:21.740Z,-0.06
2023-02-15T03:12:49.264Z,-0.07
2023-02-15T03:15:26.404Z,-0.04
2023-02-15T03:17:58.548Z,-0.07
2023-02-15T03:20:32.414Z,-0.06
2023-02-15T03:23:04.876Z,-0.16
2023-02-15T03:25:43.900Z,-0.21
2023-02-15T03:28:22.038Z,-0.23
2023-02-15T03:30:52.866Z,-0.24
2023-02-15T03:33:20.310Z,-0.16
2023-02-15T03:35:58.449Z,-0.22
2023-02-15T03:38:35.169Z,-0.20
2023-02-15T03:43:46.126Z,-0.11
2023-02-15T03:46:22.635Z,-0.10
2023-02-15T03:48:54.652Z,-0.11
2023-02-15T03:51:36.000Z,-0.10
2023-02-15T03:54:40.982Z,-0.15
2023-02-15T03:57:33.160Z,-0.06
2023-02-15T04:00:19.632Z,-0.11
2023-02-15T04:02:52.236Z,-0.08
2023-02-15T04:05:18.891Z,-0.09
2023-02-15T04:07:45.520Z,-0.07
2023-02-15T04:10:30.521Z,-0.05
2023-02-15T04:12:57.883Z,-0.03
2023-02-15T04:15:42.887Z,-0.07
2023-02-15T04:20:54.604Z,-0.07
2023-02-15T04:23:39.809Z,-0.08
2023-02-15T04:26:07.004Z,-0.09
2023-02-15T04:28:33.617Z,-0.12
2023-02-15T04:31:00.336Z,-0.26
2023-02-15T04:33:27.000Z,-0.22
2023-02-15T04:35:53.690Z,-0.26
2023-02-15T04:38:20.410Z,-0.20
2023-02-15T04:40:51.779Z,-0.20
2023-02-15T04:43:20.722Z,-0.22
2023-02-15T04:45:50.389Z,-0.19
2023-02-15T04:48:17.882Z,-0.20
2023-02-15T04:50:45.145Z,-0.23
2023-02-15T04:53:12.352Z,-0.26
2023-02-15T04:55:39.000Z,-0.30
2023-02-15T04:58:05.655Z,-0.30
2023-02-15T05:00:32.289Z,-0.28
2023-02-15T05:02:59.168Z,-0.29
2023-02-15T05:05:25.887Z,-0.25
2023-02-15T05:07:52.510Z,-0.33
2023-02-15T05:10:19.249Z,-0.40
2023-02-15T05:12:45.890Z,-0.34
2023-02-15T05:15:13.091Z,-0.29
2023-02-15T05:17:39.944Z,-0.40
2023-02-15T05:20:07.170Z,-0.36
2023-02-15T05:22:33.918Z,-0.30
2023-02-15T05:25:19.198Z,-0.28
2023-02-15T05:28:05.375Z,-0.26
2023-02-15T05:30:33.402Z,-0.23
2023-02-15T05:33:00.005Z,-0.20
2023-02-15T05:35:26.649Z,-0.20
2023-02-15T05:37:53.350Z,-0.22
2023-02-15T05:40:19.976Z,-0.22
2023-02-15T05:42:46.714Z,-0.21
2023-02-15T05:45:13.325Z,-0.17
2023-02-15T05:47:39.901Z,-0.15
2023-02-15T05:50:07.295Z,-0.19
2023-02-15T05:52:34.318Z,-0.22
2023-02-15T05:55:01.482Z,-0.17
2023-02-15T05:57:29.059Z,-0.18
2023-02-15T05:59:55.674Z,-0.15
2023-02-15T06:02:22.510Z,-0.24
2023-02-15T06:04:49.335Z,-0.24
2023-02-15T06:07:16.192Z,-0.26
2023-02-15T06:09:49.316Z,-0.31
2023-02-15T06:12:16.293Z,-0.35
2023-02-15T06:14:43.467Z,-0.40
2023-02-15T06:19:37.339Z,-0.36
2023-02-15T06:22:05.468Z,-0.38
2023-02-15T06:24:32.387Z,-0.37
2023-02-15T06:27:09.730Z,-0.37
2023-02-15T06:29:39.488Z,-0.37
2023-02-15T06:32:16.266Z,-0.36
2023-02-15T06:35:05.744Z,-0.40
2023-02-15T06:37:37.948Z,-0.48
2023-02-15T06:40:05.577Z,-0.41
2023-02-15T06:42:42.763Z,-0.41
2023-02-15T06:47:43.604Z,-0.50
2023-02-15T06:50:15.992Z,-0.55
2023-02-15T06:55:19.201Z,-0.47
2023-02-15T06:57:48.921Z,-0.42
2023-02-15T07:00:24.041Z,-0.40
2023-02-15T07:03:03.170Z,-0.42
2023-02-15T07:05:36.408Z,-0.46
2023-02-15T07:08:05.941Z,-0.49
2023-02-15T07:10:46.810Z,-0.44
2023-02-15T07:13:18.821Z,-0.46
2023-02-15T07:15:49.698Z,-0.43
2023-02-15T07:18:22.022Z,-0.51
2023-02-15T07:20:50.015Z,-0.56
2023-02-15T07:23:44.277Z,-0.53
2023-02-15T07:26:19.787Z,-0.46
2023-02-15T07:28:52.489Z,-0.41
2023-02-15T07:31:28.836Z,-0.37
2023-02-15T07:33:58.913Z,-0.34
2023-02-15T07:36:35.846Z,-0.32
2023-02-15T07:39:04.671Z,-0.27
2023-02-15T07:44:30.234Z,-0.26
2023-02-15T07:46:57.737Z,-0.29
2023-02-15T07:49:36.576Z,-0.34
2023-02-15T07:52:14.648Z,-0.48
2023-02-15T07:54:48.558Z,-0.59
2023-02-15T07:59:49.038Z,-0.52
2023-02-15T08:02:35.458Z,-0.43
2023-02-15T08:05:02.663Z,-0.38
2023-02-15T08:07:35.773Z,-0.32
2023-02-15T08:10:02.997Z,-0.33
2023-02-15T08:12:36.091Z,-0.32
2023-02-15T08:15:06.077Z,-0.24
2023-02-15T08:17:40.634Z,-0.23
2023-02-15T08:20:11.454Z,-0.13
2023-02-15T08:22:41.472Z,-0.07
2023-02-15T08:25:12.704Z,0.01
2023-02-15T08:27:52.471Z,-0.01
2023-02-15T08:30:36.323Z,0.05
2023-02-15T08:33:36.597Z,0.11
2023-02-15T08:36:12.255Z,0.06
2023-02-15T08:38:45.721Z,-0.02
2023-02-15T08:41:16.990Z,-0.01
2023-02-15T08:49:38.340Z,0.18
2023-02-15T08:54:48.330Z,0.38
2023-02-15T08:57:18.030Z,0.42
2023-02-15T08:59:56.545Z,0.44
2023-02-15T09:05:41.322Z,0.53
2023-02-15T09:08:35.962Z,0.58
2023-02-15T09:11:21.740Z,0.64
2023-02-15T09:13:58.845Z,0.70
2023-02-15T09:16:33.573Z,0.66
2023-02-15T09:19:05.777Z,0.77
2023-02-15T09:21:34.731Z,0.88
2023-02-15T09:24:18.177Z,0.91
2023-02-15T09:26:50.987Z,0.92
2023-02-15T09:31:51.368Z,0.95
2023-02-15T09:34:26.219Z,0.98
2023-02-15T09:39:25.066Z,1.02
2023-02-15T09:42:29.234Z,1.10
2023-02-15T09:48:16.852Z,1.05
2023-02-15T09:51:14.532Z,1.06
2023-02-15T09:54:21.886Z,1.11
2023-02-15T09:57:25.956Z,1.24
2023-02-15T10:00:25.692Z,1.25
2023-02-15T10:03:08.358Z,1.30
2023-02-15T10:06:24.297Z,1.30
2023-02-15T10:09:09.268Z,1.34
2023-02-15T10:11:53.585Z,1.41
2023-02-15T10:14:57.456Z,1.49
2023-02-15T10:17:55.879Z,1.47
2023-02-15T10:20:54.377Z,1.58
2023-02-15T10:23:43.580Z,1.29
2023-02-15T10:26:17.758Z,1.58
2023-02-15T10:29:02.691Z,1.81
2023-02-15T10:31:52.235Z,2.02
2023-02-15T10:34:24.224Z,2.02
2023-02-15T10:39:46.321Z,2.21
2023-02-15T10:42:27.509Z,2.23
2023-02-15T10:45:08.301Z,2.39
2023-02-15T10:50:38.493Z,2.51
2023-02-15T10:56:01.384Z,2.42
2023-02-15T10:58:40.060Z,2.71
2023-02-15T11:01:20.978Z,2.91
2023-02-15T11:04:02.383Z,2.88
2023-02-15T11:09:21.879Z,3.00
2023-02-15T11:11:55.258Z,3.03
2023-02-15T11:14:44.909Z,3.07
2023-02-15T11:17:26.255Z,3.16
2023-02-15T11:20:27.040Z,3.23
2023-02-15T11:22:58.075Z,3.27
2023-02-15T11:25:41.555Z,3.34
2023-02-15T11:28:22.898Z,3.43
2023-02-15T11:33:46.847Z,3.56
2023-02-15T11:36:19.401Z,3.64
2023-02-15T11:41:31.387Z,3.86
2023-02-15T11:44:19.440Z,4.10
2023-02-15T11:46:50.049Z,4.28
2023-02-15T11:49:33.117Z,3.98
2023-02-15T11:52:03.305Z,3.92
2023-02-15T11:54:41.811Z,3.94
2023-02-15T11:57:24.317Z,4.11
2023-02-15T12:00:05.137Z,4.24
2023-02-15T12:02:40.483Z,4.36
2023-02-15T12:07:56.343Z,3.98
2023-02-15T12:10:26.297Z,3.78
2023-02-15T12:15:52.606Z,4.12
2023-02-15T12:18:41.053Z,4.20
2023-02-15T12:21:29.236Z,4.14
2023-02-15T12:24:19.549Z,4.24
2023-02-15T12:27:02.525Z,4.30
2023-02-15T12:29:46.573Z,4.42
2023-02-15T12:32:23.327Z,4.56
2023-02-15T12:34:53.723Z,4.62
2023-02-15T12:37:28.473Z,4.85
2023-02-15T12:40:21.758Z,4.77
2023-02-15T12:45:37.878Z,4.69
2023-02-15T12:50:54.823Z,5.15
2023-02-15T12:53:45.313Z,5.06
2023-02-15T12:56:27.197Z,5.02
2023-02-15T12:59:12.204Z,5.19
2023-02-15T13:04:31.233Z,4.84
2023-02-15T13:07:04.137Z,4.83
2023-02-15T13:09:36.250Z,4.86
2023-02-15T13:12:27.307Z,4.94
2023-02-15T13:15:06.480Z,5.12
2023-02-15T13:17:37.055Z,5.24
2023-02-15T13:20:27.558Z,5.25
2023-02-15T13:23:08.982Z,5.20
2023-02-15T13:26:07.232Z,5.11
2023-02-15T13:28:56.055Z,4.91
2023-02-15T13:31:42.746Z,4.84
2023-02-15T13:34:29.645Z,4.96
2023-02-15T13:37:31.855Z,5.02
2023-02-15T13:40:16.219Z,5.09
2023-02-15T13:45:36.476Z,4.99
2023-02-15T13:48:40.122Z,4.97
2023-02-15T13:57:27.113Z,4.93
2023-02-15T14:02:55.434Z,4.66
2023-02-15T14:05:28.522Z,4.42
2023-02-15T14:08:08.792Z,4.50
2023-02-15T14:10:47.666Z,4.53
2023-02-15T14:13:33.371Z,4.49
2023-02-15T14:16:25.154Z,4.51
2023-02-15T14:19:39.275Z,4.42
2023-02-15T14:22:18.672Z,4.40
2023-02-15T14:25:02.903Z,4.32
2023-02-15T14:27:58.076Z,4.17
2023-02-15T14:30:41.759Z,4.10
2023-02-15T14:33:28.092Z,4.12
2023-02-15T14:36:02.557Z,4.07
2023-02-15T14:39:10.677Z,4.18
2023-02-15T14:44:52.955Z,4.04
2023-02-15T14:47:36.735Z,4.03
2023-02-15T14:50:33.226Z,4.00
2023-02-15T14:53:30.881Z,4.13
2023-02-15T14:56:16.515Z,4.11
2023-02-15T14:58:54.390Z,4.22
2023-02-15T15:01:39.719Z,4.28
2023-02-15T15:04:36.806Z,4.19
2023-02-15T15:07:19.061Z,4.13
2023-02-15T15:15:51.072Z,3.97
2023-02-15T15:21:47.750Z,4.12
2023-02-15T15:24:36.111Z,4.14
2023-02-15T15:27:45.367Z,3.95
2023-02-15T15:30:33.616Z,3.85
2023-02-15T15:33:45.935Z,3.87
2023-02-15T15:36:36.317Z,3.90
2023-02-15T15:39:24.692Z,3.88
2023-02-15T15:42:25.299Z,3.83
2023-02-15T15:45:04.383Z,3.83
2023-02-15T15:48:09.876Z,3.81
2023-02-15T15:50:46.641Z,3.79
2023-02-15T15:53:23.435Z,3.67
2023-02-15T15:56:03.808Z,3.67
2023-02-15T15:58:36.901Z,3.58
2023-02-15T16:01:27.881Z,3.55
2023-02-15T16:04:02.437Z,3.50
2023-02-15T16:06:39.101Z,3.44
2023-02-15T16:09:27.755Z,3.48
2023-02-15T16:14:41.985Z,3.31
2023-02-15T16:17:27.881Z,3.23
2023-02-15T16:20:02.917Z,3.11
2023-02-15T16:22:51.099Z,3.14
2023-02-15T16:25:36.238Z,3.04
2023-02-15T16:28:21.509Z,3.02
2023-02-15T16:31:05.339Z,2.96
2023-02-15T16:33:45.853Z,2.76
2023-02-15T16:36:26.737Z,2.70
2023-02-15T16:39:19.342Z,2.63
2023-02-15T16:41:48.469Z,2.57
2023-02-15T16:44:42.329Z,2.54
2023-02-15T16:47:18.170Z,2.60
2023-02-15T16:49:53.641Z,2.37
2023-02-15T16:52:24.243Z,2.30
2023-02-15T16:55:04.773Z,2.16
2023-02-15T16:57:37.878Z,2.11
2023-02-15T17:00:18.898Z,2.00
2023-02-15T17:02:56.918Z,1.84
2023-02-15T17:05:58.651Z,1.87
2023-02-15T17:08:43.026Z,1.86
2023-02-15T17:11:35.581Z,1.71
2023-02-15T17:14:07.843Z,1.72
2023-02-15T17:16:45.384Z,1.59
2023-02-15T17:19:33.915Z,1.55
2023-02-15T17:22:20.391Z,1.53
2023-02-15T17:24:52.397Z,1.47
2023-02-15T17:27:27.477Z,1.38
2023-02-15T17:30:07.083Z,1.34
2023-02-15T17:32:39.244Z,1.31
2023-02-15T17:35:39.365Z,1.20
2023-02-15T17:38:28.385Z,1.17
2023-02-15T17:40:57.456Z,1.11
2023-02-15T17:43:27.142Z,1.06
2023-02-15T17:51:16.304Z,0.93
2023-02-15T17:54:09.208Z,0.97
2023-02-15T17:56:37.902Z,1.01
2023-02-15T18:02:06.386Z,0.89
2023-02-15T18:04:59.463Z,0.90
2023-02-15T18:07:46.357Z,1.01
2023-02-15T18:10:37.298Z,1.21
2023-02-15T18:13:04.764Z,1.28
2023-02-15T18:15:34.781Z,1.38
2023-02-15T18:18:04.502Z,1.41
2023-02-15T18:20:38.233Z,1.38
2023-02-15T18:25:48.734Z,1.43
2023-02-15T18:28:18.905Z,1.25
2023-02-15T18:30:48.969Z,1.31
2023-02-15T18:33:35.609Z,1.37
2023-02-15T18:36:09.387Z,1.41
2023-02-15T18:38:58.912Z,1.31
2023-02-15T18:44:03.189Z,1.28
2023-02-15T18:46:29.928Z,1.26
2023-02-15T18:48:59.576Z,1.21
2023-02-15T18:51:57.911Z,1.16
2023-02-15T18:54:33.700Z,1.09
2023-02-15T18:57:13.719Z,1.06
2023-02-15T18:59:58.501Z,0.99
2023-02-15T19:02:28.458Z,0.92
2023-02-15T19:04:55.557Z,0.89
2023-02-15T19:07:28.279Z,0.85
2023-02-15T19:10:02.139Z,0.77
2023-02-15T19:12:29.718Z,0.77
2023-02-15T19:14:58.049Z,0.73
2023-02-15T19:17:26.422Z,0.70
2023-02-15T19:20:10.375Z,0.65
2023-02-15T19:22:58.062Z,0.57
2023-02-15T19:25:41.513Z,0.46
2023-02-15T19:28:39.714Z,0.44
2023-02-15T19:33:36.338Z,0.40
2023-02-15T19:36:03.722Z,0.41
2023-02-15T19:38:46.228Z,0.37
2023-02-15T19:41:30.717Z,0.37
2023-02-15T19:46:35.078Z,0.40
2023-02-15T19:51:29.140Z,0.42
2023-02-15T19:54:07.198Z,0.44
2023-02-15T19:56:36.865Z,0.44
2023-02-15T19:59:03.611Z,0.48
2023-02-15T20:01:44.798Z,0.47
2023-02-15T20:04:14.721Z,0.48
2023-02-15T20:06:42.378Z,0.43
2023-02-15T20:09:21.221Z,0.55
2023-02-15T20:11:54.595Z,0.54
2023-02-15T20:14:22.689Z,0.53
2023-02-15T20:16:50.127Z,0.47
2023-02-15T20:19:20.383Z,0.50
2023-02-15T20:24:26.245Z,0.52
2023-02-15T20:29:25.560Z,0.58
2023-02-15T20:31:55.625Z,0.49
2023-02-15T20:34:24.927Z,0.47
2023-02-15T20:36:52.662Z,0.53
2023-02-15T20:39:20.894Z,0.57
2023-02-15T20:41:48.424Z,0.57
2023-02-15T20:44:26.471Z,0.58
2023-02-15T20:49:25.318Z,0.59
2023-02-15T20:54:28.454Z,0.58
2023-02-15T20:59:31.823Z,0.52
2023-02-15T21:02:22.553Z,0.52
2023-02-15T21:04:53.486Z,0.56
2023-02-15T21:07:52.208Z,0.50
2023-02-15T21:10:38.488Z,0.42
2023-02-15T21:13:21.141Z,0.51
2023-02-15T21:15:51.957Z,0.45
2023-02-15T21:18:34.612Z,0.37
2023-02-15T21:21:06.768Z,0.41
2023-02-15T21:28:57.322Z,0.13
2023-02-15T21:33:58.031Z,0.24
2023-02-15T21:38:59.475Z,0.31
2023-02-15T21:41:48.223Z,0.36
2023-02-15T21:44:41.173Z,0.36
2023-02-15T21:47:47.716Z,0.29
2023-02-15T21:50:42.708Z,0.31
2023-02-15T21:55:41.156Z,0.40
2023-02-15T21:58:21.110Z,0.32
2023-02-15T22:00:48.455Z,0.36
2023-02-15T22:03:28.112Z,0.37
2023-02-15T22:06:00.803Z,0.34
2023-02-15T22:08:36.602Z,0.26
2023-02-15T22:11:03.912Z,0.27
2023-02-15T22:14:04.547Z,0.26
2023-02-15T22:19:05.979Z,0.31
2023-02-15T22:21:49.337Z,0.26
2023-02-15T22:24:18.121Z,0.31
2023-02-15T22:26:50.205Z,0.32
2023-02-15T22:29:22.298Z,0.25
2023-02-15T22:31:49.928Z,0.34
2023-02-15T22:34:32.335Z,0.34
2023-02-15T22:37:02.625Z,0.19
2023-02-15T22:39:36.787Z,0.25
2023-02-15T22:42:18.570Z,0.15
2023-02-15T22:44:48.704Z,0.14
2023-02-15T22:47:24.537Z,0.11
2023-02-15T22:49:54.900Z,0.19
2023-02-15T22:54:54.489Z,0.18
2023-02-15T22:57:32.046Z,0.13
2023-02-15T23:00:03.230Z,0.19
2023-02-15T23:02:30.345Z,0.21
2023-02-15T23:04:59.649Z,0.24
2023-02-15T23:07:30.211Z,0.26
2023-02-15T23:12:26.015Z,0.32
2023-02-15T23:15:02.233Z,0.36
2023-02-15T23:17:32.641Z,0.36
2023-02-15T23:19:59.608Z,0.35
2023-02-15T23:22:30.394Z,0.33
2023-02-15T23:24:57.224Z,0.28
2023-02-15T23:27:42.618Z,0.26
2023-02-15T23:32:41.367Z,0.36
2023-02-15T23:35:18.760Z,0.30
2023-02-15T23:37:48.755Z,0.32
2023-02-15T23:40:45.051Z,0.29
2023-02-15T23:43:21.506Z,0.37
2023-02-15T23:45:51.063Z,0.34
2023-02-15T23:48:30.266Z,0.24
2023-02-15T23:50:59.378Z,0.18
2023-02-15T23:55:57.935Z,0.20
2023-02-15T23:58:40.549Z,0.12
